createdAt,value
2018-10-12T00:01:49.178Z,13.30
2018-10-12T00:04:20.153Z,13.21
2018-10-12T00:06:49.944Z,13.25
2018-10-12T00:09:20.978Z,13.23
2018-10-12T00:11:51.147Z,13.31
2018-10-12T00:14:21.293Z,13.22
2018-10-12T00:16:51.260Z,13.23
2018-10-12T00:19:21.503Z,13.32
2018-10-12T00:21:51.475Z,13.40
2018-10-12T00:24:21.399Z,13.48
2018-10-12T00:26:51.890Z,13.57
2018-10-12T00:29:23.184Z,13.66
2018-10-12T00:31:53.173Z,13.70
2018-10-12T00:34:23.324Z,13.80
2018-10-12T00:36:53.984Z,13.90
2018-10-12T00:39:24.973Z,13.95
2018-10-12T00:41:55.868Z,14.08
2018-10-12T00:44:25.701Z,14.13
2018-10-12T00:46:56.578Z,14.23
2018-10-12T00:49:28.207Z,14.28
2018-10-12T00:51:58.321Z,14.33
2018-10-12T00:54:28.616Z,14.40
2018-10-12T00:56:59.147Z,14.40
2018-10-12T00:59:30.256Z,14.46
2018-10-12T01:02:00.641Z,14.51
2018-10-12T01:04:30.340Z,14.49
2018-10-12T01:07:01.093Z,14.46
2018-10-12T01:09:32.468Z,14.54
2018-10-12T01:12:40.713Z,14.52
2018-10-12T01:15:10.995Z,14.52
2018-10-12T01:17:40.920Z,14.50
2018-10-12T01:20:13.015Z,14.48
2018-10-12T01:22:44.684Z,14.44
2018-10-12T01:25:14.525Z,14.46
2018-10-12T01:27:44.186Z,14.45
2018-10-12T01:30:14.939Z,14.43
2018-10-12T01:32:50.177Z,14.44
2018-10-12T01:35:20.438Z,14.44
2018-10-12T01:37:50.387Z,14.44
2018-10-12T01:40:20.178Z,14.51
2018-10-12T01:42:49.808Z,14.53
2018-10-12T01:45:20.368Z,14.51
2018-10-12T01:47:50.280Z,14.46
2018-10-12T01:50:20.312Z,14.51
2018-10-12T01:52:50.684Z,14.57
2018-10-12T01:55:21.538Z,14.59
2018-10-12T01:57:54.553Z,14.64
2018-10-12T02:00:25.021Z,14.66
2018-10-12T02:02:54.928Z,14.72
2018-10-12T02:05:25.809Z,14.68
2018-10-12T02:07:56.222Z,14.75
2018-10-12T02:10:25.879Z,14.76
2018-10-12T02:12:55.716Z,14.80
2018-10-12T02:15:26.065Z,14.85
2018-10-12T02:17:55.948Z,14.65
2018-10-12T02:20:25.781Z,14.85
2018-10-12T02:22:56.100Z,14.88
2018-10-12T02:25:26.704Z,14.90
2018-10-12T02:27:56.811Z,14.89
2018-10-12T02:30:27.188Z,14.96
2018-10-12T02:32:59.246Z,14.98
2018-10-12T02:35:31.715Z,15.06
2018-10-12T02:38:03.240Z,15.05
2018-10-12T02:40:33.114Z,15.06
2018-10-12T02:43:03.404Z,15.13
2018-10-12T02:45:33.352Z,15.16
2018-10-12T02:48:03.025Z,15.18
2018-10-12T02:50:32.900Z,15.15
2018-10-12T02:53:02.568Z,15.22
2018-10-12T02:55:33.967Z,15.26
2018-10-12T02:58:04.082Z,15.30
2018-10-12T03:00:34.290Z,15.30
2018-10-12T03:03:04.199Z,15.33
2018-10-12T03:05:34.005Z,15.34
2018-10-12T03:08:04.416Z,15.27
2018-10-12T03:10:34.006Z,15.34
2018-10-12T03:13:04.486Z,15.34
2018-10-12T03:15:34.865Z,15.38
2018-10-12T03:18:04.414Z,15.38
2018-10-12T03:20:34.637Z,15.37
2018-10-12T03:23:04.626Z,15.31
2018-10-12T03:25:34.782Z,15.15
2018-10-12T03:28:15.438Z,15.30
2018-10-12T03:30:45.266Z,15.33
2018-10-12T03:33:15.203Z,15.36
2018-10-12T03:35:45.603Z,15.38
2018-10-12T03:38:16.392Z,15.36
2018-10-12T03:40:46.297Z,15.34
2018-10-12T03:43:16.910Z,15.36
2018-10-12T03:45:46.965Z,15.33
2018-10-12T03:48:16.878Z,15.21
2018-10-12T03:50:47.039Z,15.40
2018-10-12T03:53:17.199Z,15.40
2018-10-12T03:55:46.766Z,15.45
2018-10-12T03:58:16.824Z,15.41
2018-10-12T04:00:46.348Z,15.42
2018-10-12T04:03:16.510Z,15.40
2018-10-12T04:05:46.687Z,15.41
2018-10-12T04:08:16.873Z,15.29
2018-10-12T04:10:55.550Z,15.32
2018-10-12T04:13:27.231Z,15.30
2018-10-12T04:15:57.939Z,15.25
2018-10-12T04:18:27.754Z,15.06
2018-10-12T04:20:57.636Z,15.03
2018-10-12T04:23:29.447Z,15.01
2018-10-12T04:25:59.252Z,14.98
2018-10-12T04:28:29.216Z,14.82
2018-10-12T04:30:59.369Z,14.73
2018-10-12T04:33:29.090Z,14.60
2018-10-12T04:36:01.000Z,14.60
2018-10-12T04:41:15.299Z,14.66
2018-10-12T04:43:46.015Z,14.52
2018-10-12T04:46:21.671Z,14.53
2018-10-12T04:48:52.478Z,14.50
2018-10-12T04:51:27.357Z,14.39
2018-10-12T04:53:58.472Z,14.37
2018-10-12T04:56:28.520Z,14.34
2018-10-12T04:58:58.392Z,14.23
2018-10-12T05:01:28.570Z,14.22
2018-10-12T05:03:58.407Z,14.12
2018-10-12T05:06:28.268Z,14.02
2018-10-12T05:08:58.365Z,13.98
2018-10-12T05:11:28.228Z,13.94
2018-10-12T05:13:57.901Z,13.93
2018-10-12T05:16:27.743Z,13.86
2018-10-12T05:18:57.640Z,13.81
2018-10-12T05:21:28.393Z,13.72
2018-10-12T05:23:58.399Z,13.66
2018-10-12T05:26:28.030Z,13.64
2018-10-12T05:28:57.715Z,13.64
2018-10-12T05:31:27.604Z,13.62
2018-10-12T05:33:57.787Z,13.61
2018-10-12T05:36:27.678Z,13.56
2018-10-12T05:38:57.601Z,13.52
2018-10-12T05:41:27.591Z,13.48
2018-10-12T05:43:57.419Z,13.48
2018-10-12T05:46:27.236Z,13.46
2018-10-12T05:49:07.397Z,13.52
2018-10-12T05:51:38.013Z,13.53
2018-10-12T05:54:07.842Z,13.50
2018-10-12T05:56:39.980Z,13.49
2018-10-12T05:59:11.703Z,13.48
2018-10-12T06:01:41.407Z,13.51
2018-10-12T06:04:11.255Z,13.56
2018-10-12T06:06:42.673Z,13.49
2018-10-12T06:09:12.922Z,13.54
2018-10-12T06:11:42.526Z,13.60
2018-10-12T06:14:12.294Z,13.44
2018-10-12T06:16:42.234Z,13.72
2018-10-12T06:19:13.120Z,13.75
2018-10-12T06:21:43.225Z,13.81
2018-10-12T06:24:12.974Z,13.83
2018-10-12T06:26:44.533Z,13.83
2018-10-12T06:29:15.725Z,13.80
2018-10-12T06:31:46.748Z,13.68
2018-10-12T06:34:16.849Z,13.74
2018-10-12T06:36:47.956Z,13.75
2018-10-12T06:39:18.173Z,13.94
2018-10-12T06:41:48.632Z,13.97
2018-10-12T06:44:18.877Z,13.97
2018-10-12T06:46:48.598Z,14.04
2018-10-12T06:49:18.340Z,14.08
2018-10-12T06:51:48.546Z,14.08
2018-10-12T06:54:18.421Z,14.39
2018-10-12T06:56:48.778Z,14.50
2018-10-12T06:59:22.233Z,14.35
2018-10-12T07:01:52.541Z,14.58
2018-10-12T07:04:22.755Z,14.67
2018-10-12T07:06:53.886Z,14.70
2018-10-12T07:09:24.637Z,14.67
2018-10-12T07:11:54.612Z,14.68
2018-10-12T07:14:24.737Z,14.73
2018-10-12T07:16:54.798Z,14.78
2018-10-12T07:19:24.616Z,14.80
2018-10-12T07:21:55.065Z,14.93
2018-10-12T07:24:24.971Z,14.86
2018-10-12T07:26:54.772Z,14.87
2018-10-12T07:29:25.432Z,15.07
2018-10-12T07:31:55.204Z,15.18
2018-10-12T07:34:24.667Z,15.32
2018-10-12T07:36:54.981Z,15.45
2018-10-12T07:39:24.995Z,15.65
2018-10-12T07:41:55.662Z,15.65
2018-10-12T07:44:26.105Z,15.68
2018-10-12T07:46:56.344Z,15.86
2018-10-12T07:49:25.959Z,15.97
2018-10-12T07:55:38.245Z,16.18
2018-10-12T07:58:09.156Z,16.55
2018-10-12T08:00:38.673Z,16.62
2018-10-12T08:06:37.172Z,16.93
2018-10-12T08:09:10.300Z,17.00
2018-10-12T08:11:41.407Z,17.13
2018-10-12T08:14:12.195Z,17.26
2018-10-12T08:16:42.524Z,17.40
2018-10-12T08:19:14.327Z,17.57
2018-10-12T08:21:45.844Z,17.64
2018-10-12T08:24:15.844Z,17.76
2018-10-12T08:26:46.006Z,17.84
2018-10-12T08:29:15.685Z,17.85
2018-10-12T08:31:45.505Z,17.80
2018-10-12T08:34:15.286Z,18.08
2018-10-12T08:36:45.345Z,18.03
2018-10-12T08:39:16.001Z,18.22
2018-10-12T08:41:48.071Z,18.34
2018-10-12T08:44:18.359Z,18.52
2018-10-12T08:46:48.511Z,18.64
2018-10-12T08:49:18.139Z,18.73
2018-10-12T08:51:48.103Z,18.86
2018-10-12T08:54:18.891Z,19.01
2018-10-12T08:56:51.300Z,19.12
2018-10-12T08:59:21.355Z,19.21
2018-10-12T09:01:51.509Z,19.32
2018-10-12T09:04:21.069Z,19.42
2018-10-12T09:06:50.590Z,19.45
2018-10-12T09:09:20.516Z,19.59
2018-10-12T09:11:50.390Z,19.69
2018-10-12T09:14:22.881Z,19.78
2018-10-12T09:16:53.098Z,19.87
2018-10-12T09:19:23.028Z,19.96
2018-10-12T09:21:54.731Z,20.14
2018-10-12T09:24:25.611Z,20.38
2018-10-12T09:26:57.632Z,20.49
2018-10-12T09:29:27.285Z,20.71
2018-10-12T09:31:56.972Z,20.89
2018-10-12T09:34:26.970Z,20.97
2018-10-12T09:36:57.877Z,21.07
2018-10-12T09:39:32.811Z,21.21
2018-10-12T09:42:03.223Z,21.44
2018-10-12T09:44:37.804Z,21.64
2018-10-12T09:47:09.276Z,21.76
2018-10-12T09:49:42.137Z,22.01
2018-10-12T09:52:13.959Z,22.09
2018-10-12T09:54:44.303Z,22.15
2018-10-12T09:57:23.957Z,22.20
2018-10-12T09:59:56.409Z,22.28
2018-10-12T10:02:32.795Z,22.41
2018-10-12T10:05:10.503Z,22.51
2018-10-12T10:07:41.911Z,22.70
2018-10-12T10:10:13.432Z,22.76
2018-10-12T10:12:44.770Z,23.00
2018-10-12T10:15:20.344Z,23.26
2018-10-12T10:17:51.535Z,23.25
2018-10-12T10:20:22.919Z,23.43
2018-10-12T10:22:52.586Z,23.58
2018-10-12T10:25:24.015Z,23.48
2018-10-12T10:27:54.772Z,23.57
2018-10-12T10:30:27.223Z,23.71
2018-10-12T10:32:57.157Z,23.79
2018-10-12T10:35:29.156Z,23.76
2018-10-12T10:37:59.860Z,23.83
2018-10-12T10:40:30.332Z,24.01
2018-10-12T10:43:01.769Z,24.13
2018-10-12T10:45:33.847Z,23.95
2018-10-12T10:48:10.635Z,23.85
2018-10-12T10:50:41.049Z,23.97
2018-10-12T10:53:12.169Z,23.96
2018-10-12T10:55:44.528Z,23.97
2018-10-12T10:58:14.874Z,24.03
2018-10-12T11:00:45.101Z,23.95
2018-10-12T11:03:15.990Z,23.86
2018-10-12T11:05:46.794Z,24.06
2018-10-12T11:08:17.914Z,24.07
2018-10-12T11:10:48.099Z,24.14
2018-10-12T11:13:21.055Z,24.00
2018-10-12T11:15:53.932Z,24.06
2018-10-12T11:18:29.418Z,23.78
2018-10-12T11:21:07.213Z,24.05
2018-10-12T11:23:40.361Z,24.01
2018-10-12T11:26:15.368Z,23.98
2018-10-12T11:28:45.141Z,24.12
2018-10-12T11:31:17.246Z,24.17
2018-10-12T11:33:48.999Z,24.15
2018-10-12T11:36:20.495Z,24.09
2018-10-12T11:38:53.240Z,24.06
2018-10-12T11:41:23.982Z,24.22
2018-10-12T11:43:54.096Z,24.28
2018-10-12T11:46:26.096Z,24.44
2018-10-12T11:48:57.276Z,24.56
2018-10-12T11:51:28.179Z,24.75
2018-10-12T11:53:58.859Z,24.79
2018-10-12T11:56:29.551Z,24.76
2018-10-12T11:59:00.052Z,24.93
2018-10-12T12:01:30.903Z,24.88
2018-10-12T12:04:02.028Z,24.92
2018-10-12T12:06:34.730Z,24.96
2018-10-12T12:09:04.879Z,24.99
2018-10-12T12:11:36.011Z,24.99
2018-10-12T12:14:06.702Z,25.07
2018-10-12T12:16:38.062Z,25.25
2018-10-12T12:19:08.106Z,25.41
2018-10-12T12:21:38.082Z,25.37
2018-10-12T12:24:08.818Z,25.51
2018-10-12T12:26:38.492Z,25.48
2018-10-12T12:29:08.843Z,25.70
2018-10-12T12:31:39.459Z,25.82
2018-10-12T12:34:09.141Z,25.80
2018-10-12T12:36:41.491Z,25.89
2018-10-12T12:39:12.855Z,26.04
2018-10-12T12:41:43.865Z,26.04
2018-10-12T12:44:14.762Z,26.06
2018-10-12T12:46:46.085Z,26.15
2018-10-12T12:49:16.999Z,26.14
2018-10-12T12:51:47.552Z,26.35
2018-10-12T12:54:21.172Z,26.35
2018-10-12T12:56:51.495Z,26.34
2018-10-12T12:59:21.594Z,26.43
2018-10-12T13:01:53.166Z,26.34
2018-10-12T13:04:29.693Z,26.49
2018-10-12T13:07:04.859Z,26.63
2018-10-12T13:09:35.050Z,26.62
2018-10-12T13:12:05.745Z,26.49
2018-10-12T13:14:35.687Z,26.55
2018-10-12T13:17:07.290Z,26.60
2018-10-12T13:19:37.528Z,26.60
2018-10-12T13:22:08.902Z,26.74
2018-10-12T13:24:39.366Z,26.87
2018-10-12T13:27:11.359Z,26.95
2018-10-12T13:29:41.549Z,26.88
2018-10-12T13:32:12.714Z,26.82
2018-10-12T13:34:43.067Z,26.84
2018-10-12T13:37:14.200Z,26.87
2018-10-12T13:39:44.427Z,26.74
2018-10-12T13:42:14.179Z,26.84
2018-10-12T13:44:50.283Z,26.91
2018-10-12T13:47:20.768Z,27.06
2018-10-12T13:49:50.683Z,27.05
2018-10-12T13:52:20.919Z,27.07
2018-10-12T13:54:55.325Z,27.07
2018-10-12T13:57:26.438Z,27.06
2018-10-12T13:59:57.556Z,27.05
2018-10-12T14:02:28.485Z,27.02
2018-10-12T14:05:01.008Z,27.03
2018-10-12T14:07:32.837Z,27.18
2018-10-12T14:10:03.648Z,27.14
2018-10-12T14:12:35.765Z,27.09
2018-10-12T14:15:06.246Z,27.00
2018-10-12T14:17:37.086Z,26.98
2018-10-12T14:20:08.253Z,26.95
2018-10-12T14:22:38.708Z,27.02
2018-10-12T14:25:11.162Z,27.04
2018-10-12T14:27:41.476Z,27.16
2018-10-12T14:30:12.289Z,27.20
2018-10-12T14:32:42.795Z,27.14
2018-10-12T14:35:13.231Z,27.22
2018-10-12T14:37:43.433Z,27.23
2018-10-12T14:40:14.597Z,27.29
2018-10-12T14:42:45.209Z,27.39
2018-10-12T14:45:16.056Z,27.56
2018-10-12T14:47:48.097Z,27.73
2018-10-12T14:50:22.114Z,27.65
2018-10-12T14:52:54.193Z,27.51
2018-10-12T14:55:25.751Z,27.28
2018-10-12T14:57:57.515Z,27.09
2018-10-12T15:00:28.493Z,26.80
2018-10-12T15:03:00.246Z,26.62
2018-10-12T15:05:33.295Z,26.53
2018-10-12T15:08:05.366Z,26.35
2018-10-12T15:10:35.545Z,26.14
2018-10-12T15:13:05.766Z,25.97
2018-10-12T15:15:36.277Z,25.67
2018-10-12T15:18:07.540Z,25.63
2018-10-12T15:20:37.437Z,25.40
2018-10-12T15:23:07.912Z,25.26
2018-10-12T15:25:37.718Z,25.13
2018-10-12T15:28:07.639Z,25.08
2018-10-12T15:30:37.339Z,24.95
2018-10-12T15:33:07.331Z,24.73
2018-10-12T15:35:38.036Z,24.64
2018-10-12T15:38:08.725Z,24.51
2018-10-12T15:40:39.251Z,24.36
2018-10-12T15:43:09.690Z,24.20
2018-10-12T15:45:39.897Z,24.06
2018-10-12T15:48:09.836Z,23.88
2018-10-12T15:50:39.415Z,23.72
2018-10-12T15:53:09.954Z,23.58
2018-10-12T15:55:41.024Z,23.41
2018-10-12T15:58:12.508Z,23.23
2018-10-12T16:00:44.156Z,23.08
2018-10-12T16:03:13.915Z,22.91
2018-10-12T16:05:44.209Z,22.77
2018-10-12T16:08:14.873Z,22.61
2018-10-12T16:10:47.556Z,22.43
2018-10-12T16:13:18.996Z,22.26
2018-10-12T16:15:50.765Z,22.11
2018-10-12T16:18:22.026Z,22.03
2018-10-12T16:20:53.530Z,21.85
2018-10-12T16:23:30.674Z,21.74
2018-10-12T16:26:19.672Z,21.59
2018-10-12T16:28:54.591Z,21.44
2018-10-12T16:31:26.983Z,21.33
2018-10-12T16:34:02.310Z,21.23
2018-10-12T16:36:34.353Z,20.89
2018-10-12T16:39:06.585Z,20.93
2018-10-12T16:41:38.487Z,20.76
2018-10-12T16:44:09.944Z,20.66
2018-10-12T16:46:40.335Z,20.59
2018-10-12T16:49:10.580Z,20.49
2018-10-12T16:51:40.649Z,20.46
2018-10-12T16:54:11.981Z,20.43
2018-10-12T16:56:43.615Z,20.18
2018-10-12T16:59:15.088Z,20.23
2018-10-12T17:01:45.767Z,20.15
2018-10-12T17:04:17.748Z,20.09
2018-10-12T17:06:47.891Z,19.96
2018-10-12T17:09:18.637Z,19.86
2018-10-12T17:11:50.088Z,19.78
2018-10-12T17:14:21.353Z,19.70
2018-10-12T17:16:54.766Z,19.72
2018-10-12T17:19:26.090Z,19.65
2018-10-12T17:21:58.301Z,19.60
2018-10-12T17:24:29.212Z,19.50
2018-10-12T17:27:01.552Z,19.44
2018-10-12T17:29:32.178Z,19.39
2018-10-12T17:32:03.747Z,19.25
2018-10-12T17:34:33.938Z,19.18
2018-10-12T17:37:04.382Z,19.15
2018-10-12T17:39:36.784Z,19.10
2018-10-12T17:42:12.837Z,19.03
2018-10-12T17:44:43.485Z,18.98
2018-10-12T17:47:13.757Z,18.96
2018-10-12T17:49:43.460Z,18.91
2018-10-12T17:52:13.430Z,18.82
2018-10-12T17:54:43.027Z,18.78
2018-10-12T17:57:13.760Z,18.79
2018-10-12T17:59:44.233Z,18.71
2018-10-12T18:02:16.438Z,18.64
2018-10-12T18:04:46.043Z,18.57
2018-10-12T18:07:16.947Z,18.48
2018-10-12T18:09:47.628Z,18.36
2018-10-12T18:12:19.915Z,18.35
2018-10-12T18:14:50.369Z,18.29
2018-10-12T18:17:21.405Z,18.23
2018-10-12T18:19:52.699Z,18.22
2018-10-12T18:22:22.494Z,18.13
2018-10-12T18:24:52.751Z,18.11
2018-10-12T18:27:24.547Z,18.13
2018-10-12T18:29:55.142Z,18.08
2018-10-12T18:32:24.972Z,18.03
2018-10-12T18:34:55.169Z,17.97
2018-10-12T18:37:26.484Z,17.97
2018-10-12T18:39:56.359Z,17.93
2018-10-12T18:42:26.031Z,17.89
2018-10-12T18:44:56.549Z,17.85
2018-10-12T18:47:26.951Z,17.81
2018-10-12T18:49:57.427Z,17.69
2018-10-12T18:52:27.780Z,17.50
2018-10-12T18:54:58.173Z,17.65
2018-10-12T18:57:30.349Z,17.59
2018-10-12T19:00:01.614Z,17.56
2018-10-12T19:02:34.098Z,17.52
2018-10-12T19:05:06.714Z,17.51
2018-10-12T19:07:36.610Z,17.49
2018-10-12T19:10:07.712Z,17.43
2018-10-12T19:12:38.862Z,17.44
2018-10-12T19:15:09.798Z,17.53
2018-10-12T19:17:39.950Z,17.75
2018-10-12T19:20:12.501Z,17.84
2018-10-12T19:22:42.253Z,17.86
2018-10-12T19:25:14.302Z,18.17
2018-10-12T19:27:44.753Z,18.31
2018-10-12T19:30:17.940Z,18.54
2018-10-12T19:32:47.922Z,18.56
2018-10-12T19:35:19.362Z,18.58
2018-10-12T19:37:50.132Z,18.55
2018-10-12T19:40:21.280Z,18.53
2018-10-12T19:42:51.445Z,18.48
2018-10-12T19:45:22.018Z,18.50
2018-10-12T19:47:51.884Z,18.44
2018-10-12T19:50:21.547Z,18.46
2018-10-12T19:52:52.139Z,18.47
2018-10-12T19:55:23.185Z,18.49
2018-10-12T19:57:52.839Z,18.42
2018-10-12T20:00:23.135Z,18.36
2018-10-12T20:02:53.511Z,18.38
2018-10-12T20:05:23.638Z,18.45
2018-10-12T20:07:53.446Z,18.38
2018-10-12T20:10:24.736Z,18.28
2018-10-12T20:12:54.760Z,18.19
2018-10-12T20:15:24.836Z,18.19
2018-10-12T20:17:55.741Z,18.03
2018-10-12T20:20:27.142Z,18.02
2018-10-12T20:22:57.105Z,18.06
2018-10-12T20:25:28.387Z,18.09
2018-10-12T20:27:58.913Z,18.01
2018-10-12T20:30:29.053Z,17.84
2018-10-12T20:32:59.876Z,17.83
2018-10-12T20:35:29.592Z,17.71
2018-10-12T20:37:59.847Z,17.65
2018-10-12T20:40:30.187Z,17.56
2018-10-12T20:42:59.939Z,17.44
2018-10-12T20:45:30.468Z,17.42
2018-10-12T20:48:00.586Z,17.34
2018-10-12T20:50:32.730Z,17.28
2018-10-12T20:53:03.112Z,17.30
2018-10-12T20:55:33.994Z,17.27
2018-10-12T20:58:10.352Z,17.23
2018-10-12T21:00:40.646Z,17.20
2018-10-12T21:03:12.142Z,17.14
2018-10-12T21:05:42.493Z,17.12
2018-10-12T21:08:12.541Z,17.06
2018-10-12T21:10:42.348Z,17.08
2018-10-12T21:13:11.947Z,17.03
2018-10-12T21:15:44.124Z,16.91
2018-10-12T21:18:14.026Z,16.85
2018-10-12T21:20:45.167Z,16.81
2018-10-12T21:23:15.308Z,16.76
2018-10-12T21:25:45.498Z,16.73
2018-10-12T21:28:16.374Z,16.69
2018-10-12T21:30:46.813Z,16.63
2018-10-12T21:33:17.852Z,16.55
2018-10-12T21:35:47.735Z,16.54
2018-10-12T21:38:18.197Z,16.45
2018-10-12T21:40:49.192Z,16.43
2018-10-12T21:43:19.081Z,16.38
2018-10-12T21:45:49.231Z,16.32
2018-10-12T21:48:19.697Z,16.27
2018-10-12T21:50:50.829Z,16.28
2018-10-12T21:53:21.074Z,16.23
2018-10-12T21:57:15.586Z,16.02
2018-10-12T21:59:45.782Z,16.16
2018-10-12T22:02:15.725Z,16.20
2018-10-12T22:04:45.681Z,16.21
2018-10-12T22:07:16.793Z,16.17
2018-10-12T22:09:46.972Z,16.14
2018-10-12T22:12:16.585Z,16.14
2018-10-12T22:14:46.929Z,16.10
2018-10-12T22:17:17.590Z,16.16
2018-10-12T22:19:48.314Z,16.14
2018-10-12T22:22:20.042Z,16.04
2018-10-12T22:24:49.899Z,16.06
2018-10-12T22:27:20.464Z,16.11
2018-10-12T22:29:50.958Z,16.19
2018-10-12T22:32:21.649Z,16.14
2018-10-12T22:34:53.903Z,16.07
2018-10-12T22:37:27.961Z,16.16
2018-10-12T22:39:58.528Z,16.18
2018-10-12T22:42:30.372Z,16.24
2018-10-12T22:45:02.011Z,16.20
2018-10-12T22:47:33.195Z,16.21
2018-10-12T22:50:03.814Z,16.03
2018-10-12T22:52:34.470Z,16.29
2018-10-12T22:55:05.979Z,16.31
2018-10-12T22:57:38.125Z,16.31
2018-10-12T23:00:09.340Z,16.24
2018-10-12T23:02:39.439Z,16.20
2018-10-12T23:05:09.257Z,16.27
2018-10-12T23:07:39.086Z,16.33
2018-10-12T23:10:09.347Z,16.33
2018-10-12T23:12:41.475Z,16.37
2018-10-12T23:15:13.069Z,16.40
2018-10-12T23:17:45.004Z,16.36
2018-10-12T23:20:15.646Z,16.29
2018-10-12T23:22:47.048Z,16.27
2018-10-12T23:25:22.472Z,16.19
2018-10-12T23:27:55.964Z,16.12
2018-10-12T23:30:26.957Z,16.07
2018-10-12T23:33:08.924Z,16.05
2018-10-12T23:35:39.063Z,15.95
2018-10-12T23:38:10.455Z,15.86
2018-10-12T23:40:40.093Z,15.78
2018-10-12T23:43:10.231Z,15.72
2018-10-12T23:45:39.821Z,15.65
2018-10-12T23:48:09.756Z,15.58
2018-10-12T23:50:39.396Z,15.48
2018-10-12T23:53:10.893Z,15.27
2018-10-12T23:55:41.354Z,15.36
2018-10-12T23:58:10.938Z,15.32
